Time;durP1;ratioP1;P1;durP2;ratioP2;P2;SDS_P1;SDS_P2;PMS_P1;PMS_P2;Temp;Humidity;BMP_temperature;BMP_pressure;BME280_temperature;BME280_humidity;BME280_pressure;Samples;Min_cycle;Max_cycle;Signal;HPM_P1;HPM_P2
2024/01/22 00:00:16;0.00;0.00;0.62;0.00;0.00;0.62;3.60;2.10;;;18.40;19.80;;;;;;2237412;61;20762;-70
2024/01/22 00:03:02;0.00;0.00;0.62;0.00;0.00;0.62;3.57;2.40;;;18.40;19.80;;;;;;2237792;62;20366;-69
2024/01/22 00:05:47;0.00;0.00;0.62;0.00;0.00;0.62;3.40;2.30;;;18.40;19.80;;;;;;2234169;62;20367;-68
2024/01/22 00:08:32;0.00;0.00;0.62;0.00;0.00;0.62;4.60;2.40;;;18.40;19.80;;;;;;2237800;62;20391;-69
2024/01/22 00:11:17;0.00;0.00;0.62;0.00;0.00;0.62;2.83;2.30;;;18.40;19.80;;;;;;2237194;61;20398;-68
2024/01/22 00:14:01;0.00;0.00;0.62;0.00;0.00;0.62;3.23;2.03;;;18.40;19.80;;;;;;2237565;62;20406;-69
2024/01/22 00:16:46;0.00;0.00;0.62;0.00;0.00;0.62;3.37;3.07;;;18.50;19.90;;;;;;2237480;62;20358;-69
2024/01/22 00:19:32;0.00;0.00;0.62;0.00;0.00;0.62;2.77;2.17;;;18.40;19.80;;;;;;2237150;62;20367;-68
2024/01/22 00:22:17;0.00;0.00;0.62;0.00;0.00;0.62;3.60;2.63;;;18.40;19.80;;;;;;2237142;62;20398;-69
2024/01/22 00:25:02;0.00;0.00;0.62;0.00;0.00;0.62;2.80;2.33;;;18.40;19.80;;;;;;2237338;62;20358;-70
2024/01/22 00:27:48;0.00;0.00;0.62;0.00;0.00;0.62;2.97;2.67;;;18.40;19.80;;;;;;2237293;62;20378;-68
2024/01/22 00:30:33;0.00;0.00;0.62;0.00;0.00;0.62;2.63;2.33;;;18.40;19.80;;;;;;2236904;61;20386;-70
2024/01/22 00:33:17;0.00;0.00;0.62;0.00;0.00;0.62;2.80;2.07;;;18.40;19.80;;;;;;2237057;62;20921;-69
2024/01/22 00:36:04;0.00;0.00;0.62;0.00;0.00;0.62;3.47;2.60;;;18.40;19.80;;;;;;2237049;62;20414;-69
2024/01/22 00:38:49;0.00;0.00;0.62;0.00;0.00;0.62;3.80;2.17;;;18.40;19.80;;;;;;2237113;62;20354;-67
2024/01/22 00:41:33;0.00;0.00;0.62;0.00;0.00;0.62;2.73;2.10;;;18.40;19.80;;;;;;2237422;61;20390;-69
2024/01/22 00:44:18;0.00;0.00;0.62;0.00;0.00;0.62;2.57;1.80;;;18.40;19.90;;;;;;2237059;62;20379;-68
2024/01/22 00:47:04;0.00;0.00;0.62;0.00;0.00;0.62;3.83;2.00;;;18.40;19.80;;;;;;2237156;62;20391;-69
2024/01/22 00:49:48;0.00;0.00;0.62;0.00;0.00;0.62;2.23;1.60;;;18.40;19.80;;;;;;2233692;62;20398;-69
2024/01/22 00:52:35;0.00;0.00;0.62;0.00;0.00;0.62;3.13;2.27;;;18.40;19.80;;;;;;2236819;62;20366;-68
2024/01/22 00:55:19;0.00;0.00;0.62;0.00;0.00;0.62;3.13;1.90;;;18.40;19.80;;;;;;2236864;62;20394;-68
2024/01/22 00:58:04;0.00;0.00;0.62;0.00;0.00;0.62;4.00;2.13;;;18.40;19.90;;;;;;2236505;62;20411;-69
2024/01/22 01:00:49;0.00;0.00;0.62;0.00;0.00;0.62;2.97;2.17;;;18.40;19.90;;;;;;2236959;61;20386;-68
2024/01/22 01:03:34;0.00;0.00;0.62;0.00;0.00;0.62;2.80;2.20;;;18.40;19.90;;;;;;2236984;62;20409;-68
2024/01/22 01:06:19;0.00;0.00;0.62;0.00;0.00;0.62;3.33;2.47;;;18.40;19.90;;;;;;2236862;62;20370;-69
2024/01/22 01:09:08;0.00;0.00;0.62;0.00;0.00;0.62;2.73;1.90;;;18.40;19.90;;;;;;2237339;62;20455;-67
2024/01/22 01:11:52;0.00;0.00;0.62;0.00;0.00;0.62;2.20;1.73;;;18.40;19.90;;;;;;2236997;61;20856;-68
2024/01/22 01:14:38;0.00;0.00;0.62;0.00;0.00;0.62;2.80;2.10;;;18.40;19.90;;;;;;2233744;62;20390;-68
2024/01/22 01:17:23;0.00;0.00;0.62;0.00;0.00;0.62;3.93;2.07;;;18.40;19.90;;;;;;2236845;62;20394;-69
2024/01/22 01:20:10;0.00;0.00;0.62;0.00;0.00;0.62;4.20;2.57;;;18.40;19.90;;;;;;2236977;61;20362;-68
2024/01/22 01:22:55;0.00;0.00;0.62;0.00;0.00;0.62;3.00;2.00;;;18.40;19.90;;;;;;2237093;62;20484;-68
2024/01/22 01:25:41;0.00;0.00;0.62;0.00;0.00;0.62;3.00;1.87;;;18.40;19.90;;;;;;2236704;62;20766;-68
2024/01/22 01:28:26;0.00;0.00;0.62;0.00;0.00;0.62;2.70;2.10;;;18.40;19.90;;;;;;2236552;62;20853;-67
2024/01/22 01:31:13;0.00;0.00;0.62;0.00;0.00;0.62;2.80;2.30;;;18.40;19.90;;;;;;2236685;61;20461;-68
2024/01/22 01:33:57;0.00;0.00;0.62;0.00;0.00;0.62;2.50;1.70;;;18.40;19.90;;;;;;2236845;62;20390;-68
2024/01/22 01:36:42;0.00;0.00;0.62;0.00;0.00;0.62;2.33;2.00;;;18.40;19.90;;;;;;2236858;62;20389;-67
2024/01/22 01:39:27;0.00;0.00;0.62;0.00;0.00;0.62;2.97;1.70;;;18.40;20.00;;;;;;2236791;62;20891;-69
2024/01/22 01:42:13;0.00;0.00;0.62;0.00;0.00;0.62;2.47;1.80;;;18.40;19.90;;;;;;2236148;62;20806;-69
2024/01/22 01:44:58;0.00;0.00;0.62;0.00;0.00;0.62;2.60;2.20;;;18.40;20.00;;;;;;2236779;62;20422;-68
2024/01/22 01:47:45;0.00;0.00;0.62;0.00;0.00;0.62;3.90;2.77;;;18.40;20.00;;;;;;2236485;62;20417;-69
2024/01/22 01:50:30;0.00;0.00;0.62;0.00;0.00;0.62;2.43;1.83;;;18.40;20.00;;;;;;2236762;61;20826;-69
2024/01/22 01:53:15;0.00;0.00;0.62;0.00;0.00;0.62;2.70;2.23;;;18.40;20.00;;;;;;2236825;62;20475;-69
2024/01/22 01:56:00;0.00;0.00;0.62;0.00;0.00;0.62;2.53;1.80;;;18.40;20.00;;;;;;2236965;62;20349;-68
2024/01/22 01:58:48;0.00;0.00;0.62;0.00;0.00;0.62;3.17;1.93;;;18.40;20.00;;;;;;2236760;62;20411;-68
2024/01/22 02:01:32;0.00;0.00;0.62;0.00;0.00;0.62;2.70;2.00;;;18.40;20.00;;;;;;2233566;62;20394;-69
2024/01/22 02:04:17;0.00;0.00;0.62;0.00;0.00;0.62;3.13;2.17;;;18.40;20.00;;;;;;2235884;62;20873;-69
2024/01/22 02:07:03;0.00;0.00;0.62;0.00;0.00;0.62;3.43;1.83;;;18.40;20.00;;;;;;2236301;62;20487;-67
2024/01/22 02:09:49;0.00;0.00;0.62;0.00;0.00;0.62;2.63;1.97;;;18.40;20.00;;;;;;2236418;62;20374;-66
2024/01/22 02:12:34;0.00;0.00;0.62;0.00;0.00;0.62;2.17;1.67;;;18.40;20.00;;;;;;2236882;62;20370;-67
2024/01/22 02:15:20;0.00;0.00;0.62;0.00;0.00;0.62;2.00;1.50;;;18.40;20.10;;;;;;2237191;62;20885;-69
2024/01/22 02:18:05;0.00;0.00;0.62;0.00;0.00;0.62;2.57;1.97;;;18.40;20.00;;;;;;2234391;62;20529;-69
2024/01/22 02:20:50;0.00;0.00;0.62;0.00;0.00;0.62;2.63;1.63;;;18.40;20.10;;;;;;2237150;61;20482;-69
2024/01/22 02:23:36;0.00;0.00;0.62;0.00;0.00;0.62;2.63;2.03;;;18.40;20.10;;;;;;2237513;62;20375;-69
2024/01/22 02:26:21;0.00;0.00;0.62;0.00;0.00;0.62;1.80;1.40;;;18.40;20.10;;;;;;2237166;62;20362;-72
2024/01/22 02:29:06;0.00;0.00;0.62;0.00;0.00;0.62;2.70;1.57;;;18.40;20.10;;;;;;2237630;62;20403;-69
2024/01/22 02:31:52;0.00;0.00;0.62;0.00;0.00;0.62;2.27;1.50;;;18.40;20.10;;;;;;2237568;61;20477;-69
2024/01/22 02:35:45;0.00;0.00;0.62;0.00;0.00;0.62;2.80;2.20;;;18.40;20.10;;;;;;2230735;62;20458;-67
2024/01/22 02:38:32;0.00;0.00;0.62;0.00;0.00;0.62;2.57;1.53;;;18.40;20.10;;;;;;2226593;62;20943;-69
2024/01/22 02:41:17;0.00;0.00;0.62;0.00;0.00;0.62;2.30;1.57;;;18.40;20.10;;;;;;2228866;62;20398;-69
2024/01/22 02:44:02;0.00;0.00;0.62;0.00;0.00;0.62;2.00;1.60;;;18.40;20.10;;;;;;2229532;62;20890;-68
2024/01/22 02:46:47;0.00;0.00;0.62;0.00;0.00;0.62;1.90;1.30;;;18.40;20.10;;;;;;2229417;62;20411;-68
2024/01/22 02:49:31;0.00;0.00;0.62;0.00;0.00;0.62;2.13;1.73;;;18.40;20.10;;;;;;2229242;62;20375;-68
2024/01/22 02:52:16;0.00;0.00;0.62;0.00;0.00;0.62;1.90;1.60;;;18.40;20.10;;;;;;2232290;62;20479;-69
2024/01/22 02:55:00;0.00;0.00;0.62;0.00;0.00;0.62;1.87;1.40;;;18.40;20.10;;;;;;2233174;62;20372;-68
2024/01/22 02:57:46;0.00;0.00;0.62;0.00;0.00;0.62;2.10;1.50;;;18.40;20.10;;;;;;2233447;62;20598;-69
2024/01/22 03:00:31;0.00;0.00;0.62;0.00;0.00;0.62;2.03;1.60;;;18.40;20.10;;;;;;2233211;62;20407;-68
2024/01/22 03:03:15;0.00;0.00;0.62;0.00;0.00;0.62;1.83;1.10;;;18.40;20.10;;;;;;2233399;62;20775;-68
2024/01/22 03:06:00;0.00;0.00;0.62;0.00;0.00;0.62;1.90;1.67;;;18.40;20.10;;;;;;2233742;62;20370;-68
2024/01/22 03:08:45;0.00;0.00;0.62;0.00;0.00;0.62;3.50;1.57;;;18.40;20.10;;;;;;2233526;62;20886;-69
2024/01/22 03:11:30;0.00;0.00;0.62;0.00;0.00;0.62;2.00;1.20;;;18.40;20.10;;;;;;2233339;62;20852;-69
2024/01/22 03:14:16;0.00;0.00;0.62;0.00;0.00;0.62;1.60;1.20;;;18.40;20.20;;;;;;2233560;62;20497;-69
2024/01/22 03:17:00;0.00;0.00;0.62;0.00;0.00;0.62;2.73;1.70;;;18.40;20.10;;;;;;2233334;62;20371;-68
2024/01/22 03:19:45;0.00;0.00;0.62;0.00;0.00;0.62;3.07;2.27;;;18.50;20.20;;;;;;2233382;62;20460;-68
2024/01/22 03:22:29;0.00;0.00;0.62;0.00;0.00;0.62;2.27;1.37;;;18.40;20.20;;;;;;2235037;62;20371;-68
2024/01/22 03:25:14;0.00;0.00;0.62;0.00;0.00;0.62;2.80;1.60;;;18.40;20.20;;;;;;2237307;62;20438;-68
2024/01/22 03:27:59;0.00;0.00;0.62;0.00;0.00;0.62;3.80;1.60;;;18.40;20.20;;;;;;2236836;62;20359;-68
2024/01/22 03:30:45;0.00;0.00;0.62;0.00;0.00;0.62;1.90;1.40;;;18.40;20.20;;;;;;2234640;61;20391;-68
2024/01/22 03:33:31;0.00;0.00;0.62;0.00;0.00;0.62;1.90;1.43;;;18.40;20.20;;;;;;2234119;62;20397;-68
2024/01/22 03:36:16;0.00;0.00;0.62;0.00;0.00;0.62;2.40;1.60;;;18.50;20.30;;;;;;2234338;62;20399;-68
2024/01/22 03:39:01;0.00;0.00;0.62;0.00;0.00;0.62;2.20;1.50;;;18.50;20.30;;;;;;2237405;62;20375;-69
2024/01/22 03:41:45;0.00;0.00;0.62;0.00;0.00;0.62;2.50;1.50;;;18.50;20.30;;;;;;2237371;61;20385;-69
2024/01/22 03:44:30;0.00;0.00;0.62;0.00;0.00;0.62;2.20;1.60;;;18.50;20.30;;;;;;2234675;62;20434;-69
2024/01/22 03:47:16;0.00;0.00;0.62;0.00;0.00;0.62;1.93;1.50;;;18.50;20.30;;;;;;2231308;62;20909;-69
2024/01/22 03:50:03;0.00;0.00;0.62;0.00;0.00;0.62;2.30;1.50;;;18.50;20.30;;;;;;2237104;62;20422;-69
2024/01/22 03:52:48;0.00;0.00;0.62;0.00;0.00;0.62;2.80;1.33;;;18.50;20.30;;;;;;2234296;62;20873;-67
2024/01/22 03:55:32;0.00;0.00;0.62;0.00;0.00;0.62;2.03;1.27;;;18.50;20.30;;;;;;2237426;62;20366;-70
2024/01/22 03:58:17;0.00;0.00;0.62;0.00;0.00;0.62;3.20;1.40;;;18.50;20.30;;;;;;2237706;62;20442;-68
2024/01/22 04:01:02;0.00;0.00;0.62;0.00;0.00;0.62;1.90;1.30;;;18.50;20.30;;;;;;2236996;61;20449;-68
2024/01/22 04:03:49;0.00;0.00;0.62;0.00;0.00;0.62;2.13;1.40;;;18.50;20.40;;;;;;2236584;62;20913;-67
2024/01/22 04:06:34;0.00;0.00;0.62;0.00;0.00;0.62;3.00;1.73;;;18.50;20.30;;;;;;2237250;62;20367;-67
2024/01/22 04:09:18;0.00;0.00;0.62;0.00;0.00;0.62;1.70;1.20;;;18.50;20.40;;;;;;2237560;62;20383;-69
2024/01/22 04:12:04;0.00;0.00;0.62;0.00;0.00;0.62;4.07;1.50;;;18.50;20.40;;;;;;2236993;62;20438;-68
2024/01/22 04:14:48;0.00;0.00;0.62;0.00;0.00;0.62;2.07;1.40;;;18.50;20.40;;;;;;2237022;62;20761;-69
2024/01/22 04:17:33;0.00;0.00;0.62;0.00;0.00;0.62;1.70;1.27;;;18.50;20.40;;;;;;2233700;62;20492;-69
2024/01/22 04:20:19;0.00;0.00;0.62;0.00;0.00;0.62;2.70;1.57;;;18.50;20.40;;;;;;2233751;61;20375;-67
2024/01/22 04:23:04;0.00;0.00;0.62;0.00;0.00;0.62;2.00;1.40;;;18.50;20.40;;;;;;2236969;62;20375;-68
2024/01/22 04:25:48;0.00;0.00;0.62;0.00;0.00;0.62;2.00;1.17;;;18.50;20.40;;;;;;2237035;62;20387;-69
2024/01/22 04:28:33;0.00;0.00;0.62;0.00;0.00;0.62;2.10;1.23;;;18.50;20.40;;;;;;2237117;62;20351;-68
2024/01/22 04:31:18;0.00;0.00;0.62;0.00;0.00;0.62;2.60;1.30;;;18.50;20.40;;;;;;2237240;61;20446;-69
2024/01/22 04:34:02;0.00;0.00;0.62;0.00;0.00;0.62;1.87;1.30;;;18.50;20.40;;;;;;2233736;62;20397;-69
2024/01/22 04:36:48;0.00;0.00;0.62;0.00;0.00;0.62;2.57;1.40;;;18.50;20.40;;;;;;2236651;62;20359;-70
2024/01/22 04:39:34;0.00;0.00;0.62;0.00;0.00;0.62;2.10;1.30;;;18.50;21.00;;;;;;2236862;62;20422;-69
2024/01/22 04:42:20;0.00;0.00;0.62;0.00;0.00;0.62;1.73;1.20;;;18.50;20.40;;;;;;2237097;62;20803;-69
2024/01/22 04:45:06;0.00;0.00;0.62;0.00;0.00;0.62;1.60;1.13;;;18.50;20.40;;;;;;2236905;62;20347;-69
2024/01/22 04:47:51;0.00;0.00;0.62;0.00;0.00;0.62;2.03;1.23;;;18.50;20.40;;;;;;2236847;62;20367;-66
2024/01/22 04:50:35;0.00;0.00;0.62;0.00;0.00;0.62;2.30;1.37;;;18.50;20.40;;;;;;2236551;61;20471;-67
2024/01/22 04:53:21;0.00;0.00;0.62;0.00;0.00;0.62;2.80;1.40;;;18.50;20.40;;;;;;2236837;62;20506;-68
2024/01/22 04:56:06;0.00;0.00;0.62;0.00;0.00;0.62;2.90;1.50;;;18.50;20.40;;;;;;2236805;62;20355;-69
2024/01/22 04:58:51;0.00;0.00;0.62;0.00;0.00;0.62;1.70;1.30;;;18.50;20.50;;;;;;2237128;62;20403;-70
2024/01/22 05:01:36;0.00;0.00;0.62;0.00;0.00;0.62;2.10;1.10;;;18.60;20.60;;;;;;2236699;61;20402;-69
2024/01/22 05:04:21;0.00;0.00;0.62;0.00;0.00;0.62;1.97;1.13;;;18.50;20.50;;;;;;2236836;62;20398;-67
2024/01/22 05:07:05;0.00;0.00;0.62;0.00;0.00;0.62;1.40;1.00;;;18.50;20.50;;;;;;2236805;62;20444;-67
2024/01/22 05:09:57;0.00;0.00;0.62;0.00;0.00;0.62;1.90;1.17;;;18.60;20.60;;;;;;2236667;62;20358;-69
2024/01/22 05:12:42;0.00;0.00;0.62;0.00;0.00;0.62;1.60;0.90;;;18.60;20.60;;;;;;2236598;62;20347;-67
2024/01/22 05:15:26;0.00;0.00;0.62;0.00;0.00;0.62;1.53;1.10;;;18.60;20.60;;;;;;2236769;62;20408;-68
2024/01/22 05:18:11;0.00;0.00;0.62;0.00;0.00;0.62;1.80;1.13;;;18.60;20.60;;;;;;2236750;62;20453;-69
2024/01/22 05:20:55;0.00;0.00;0.62;0.00;0.00;0.62;2.20;1.00;;;18.50;20.50;;;;;;2236114;61;20413;-67
2024/01/22 05:23:40;0.00;0.00;0.62;0.00;0.00;0.62;2.80;1.20;;;18.60;20.60;;;;;;2236476;62;20466;-67
2024/01/22 05:26:26;0.00;0.00;0.62;0.00;0.00;0.62;2.50;1.30;;;18.60;20.60;;;;;;2233573;62;20370;-69
2024/01/22 05:29:11;0.00;0.00;0.62;0.00;0.00;0.62;2.53;1.30;;;18.50;20.50;;;;;;2236668;62;20375;-67
2024/01/22 05:31:56;0.00;0.00;0.62;0.00;0.00;0.62;1.77;1.00;;;18.60;20.60;;;;;;2236624;61;20389;-69
2024/01/22 05:34:40;0.00;0.00;0.62;0.00;0.00;0.62;1.73;1.20;;;18.50;20.50;;;;;;2236528;62;20790;-67
2024/01/22 05:37:25;0.00;0.00;0.62;0.00;0.00;0.62;2.00;1.23;;;18.60;20.60;;;;;;2236622;62;20374;-70
2024/01/22 05:40:10;0.00;0.00;0.62;0.00;0.00;0.62;1.63;1.17;;;18.60;20.60;;;;;;2236442;61;20411;-68
2024/01/22 05:42:56;0.00;0.00;0.62;0.00;0.00;0.62;1.67;1.00;;;18.60;20.60;;;;;;2236753;62;20713;-69
2024/01/22 05:45:41;0.00;0.00;0.62;0.00;0.00;0.62;2.63;1.43;;;18.60;20.70;;;;;;2236226;62;20390;-68
2024/01/22 05:48:26;0.00;0.00;0.62;0.00;0.00;0.62;1.50;1.03;;;18.60;20.70;;;;;;2236354;62;20452;-68
2024/01/22 05:51:10;0.00;0.00;0.62;0.00;0.00;0.62;1.80;1.20;;;18.60;20.70;;;;;;2233436;62;20507;-68
2024/01/22 05:53:55;0.00;0.00;0.62;0.00;0.00;0.62;1.90;1.20;;;18.60;20.70;;;;;;2236361;62;20815;-70
2024/01/22 05:56:39;0.00;0.00;0.62;0.00;0.00;0.62;2.27;1.23;;;18.60;20.70;;;;;;2236774;62;20373;-69
2024/01/22 05:59:25;0.00;0.00;0.62;0.00;0.00;0.62;2.37;1.27;;;18.60;20.70;;;;;;2236717;62;20438;-69
2024/01/22 06:02:10;0.00;0.00;0.62;0.00;0.00;0.62;1.90;1.20;;;18.60;20.70;;;;;;2236693;62;20418;-68
2024/01/22 06:04:56;0.00;0.00;0.62;0.00;0.00;0.62;1.90;1.10;;;18.60;20.70;;;;;;2236772;62;20374;-70
2024/01/22 06:07:40;0.00;0.00;0.62;0.00;0.00;0.62;1.80;1.23;;;18.60;20.70;;;;;;2237092;62;20811;-69
2024/01/22 06:10:27;0.00;0.00;0.62;0.00;0.00;0.62;2.10;1.23;;;18.60;20.80;;;;;;2236671;61;20948;-69
2024/01/22 06:13:11;0.00;0.00;0.62;0.00;0.00;0.62;2.10;1.30;;;18.60;20.80;;;;;;2237260;62;20434;-69
2024/01/22 06:15:58;0.00;0.00;0.62;0.00;0.00;0.62;1.80;1.27;;;18.60;20.80;;;;;;2237896;62;20776;-71
2024/01/22 06:18:45;0.00;0.00;0.62;0.00;0.00;0.62;2.10;1.30;;;18.60;20.80;;;;;;2236963;62;20419;-68
2024/01/22 06:21:30;0.00;0.00;0.62;0.00;0.00;0.62;1.70;1.17;;;18.60;20.80;;;;;;2236614;61;20879;-68
2024/01/22 06:24:15;0.00;0.00;0.62;0.00;0.00;0.62;1.40;0.90;;;18.60;20.80;;;;;;2236545;62;20768;-72
2024/01/22 06:27:00;0.00;0.00;0.62;0.00;0.00;0.62;1.40;0.97;;;18.70;20.90;;;;;;2236584;62;20423;-68
2024/01/22 06:29:44;0.00;0.00;0.62;0.00;0.00;0.62;1.93;1.10;;;18.70;20.90;;;;;;2236416;62;20375;-69
2024/01/22 06:32:30;0.00;0.00;0.62;0.00;0.00;0.62;1.60;1.00;;;18.70;21.50;;;;;;2236050;62;20470;-68
2024/01/22 06:35:15;0.00;0.00;0.62;0.00;0.00;0.62;2.17;1.40;;;18.70;21.00;;;;;;2236505;62;20369;-68
2024/01/22 06:38:00;0.00;0.00;0.62;0.00;0.00;0.62;1.93;1.23;;;18.70;20.90;;;;;;2233390;62;20358;-71
2024/01/22 06:40:45;0.00;0.00;0.62;0.00;0.00;0.62;1.87;1.23;;;18.60;20.90;;;;;;2236908;61;20785;-68
2024/01/22 06:43:29;0.00;0.00;0.62;0.00;0.00;0.62;1.90;1.20;;;18.60;20.90;;;;;;2236542;62;20353;-69
2024/01/22 06:46:14;0.00;0.00;0.62;0.00;0.00;0.62;1.30;0.80;;;18.70;21.00;;;;;;2236446;62;20374;-68
2024/01/22 06:49:00;0.00;0.00;0.62;0.00;0.00;0.62;3.87;1.20;;;18.60;20.90;;;;;;2236339;62;20393;-68
2024/01/22 06:51:47;0.00;0.00;0.62;0.00;0.00;0.62;1.47;0.97;;;18.70;21.00;;;;;;2236363;61;20866;-69
2024/01/22 06:54:31;0.00;0.00;0.62;0.00;0.00;0.62;1.60;1.10;;;18.70;21.00;;;;;;2236285;62;20410;-69
2024/01/22 06:57:16;0.00;0.00;0.62;0.00;0.00;0.62;1.40;1.00;;;18.70;21.00;;;;;;2236260;62;20362;-68
2024/01/22 07:00:06;0.00;0.00;0.62;0.00;0.00;0.62;1.60;1.03;;;18.60;20.90;;;;;;2233509;62;20770;-70
2024/01/22 07:02:52;0.00;0.00;0.62;0.00;0.00;0.62;1.80;1.10;;;18.70;21.00;;;;;;2237026;62;20685;-70
2024/01/22 07:05:38;0.00;0.00;0.62;0.00;0.00;0.62;1.40;0.90;;;18.70;21.00;;;;;;2236570;62;20430;-68
2024/01/22 07:08:22;0.00;0.00;0.62;0.00;0.00;0.62;1.90;1.10;;;18.70;21.00;;;;;;2233733;62;20487;-69
2024/01/22 07:11:07;0.00;0.00;0.62;0.00;0.00;0.62;1.70;1.03;;;18.70;21.00;;;;;;2236979;61;20880;-69
2024/01/22 07:13:52;0.00;0.00;0.62;0.00;0.00;0.62;1.47;1.00;;;18.70;21.00;;;;;;2236944;62;20912;-68
2024/01/22 07:16:36;0.00;0.00;0.62;0.00;0.00;0.62;1.50;1.00;;;18.70;21.00;;;;;;2236996;62;20402;-69
2024/01/22 07:19:21;0.00;0.00;0.62;0.00;0.00;0.62;1.70;1.00;;;18.70;21.00;;;;;;2236956;62;20378;-69
2024/01/22 07:22:07;0.00;0.00;0.62;0.00;0.00;0.62;1.80;1.10;;;18.70;21.00;;;;;;2236983;62;20434;-68
2024/01/22 07:24:52;0.00;0.00;0.62;0.00;0.00;0.62;1.67;1.00;;;18.70;21.00;;;;;;2236846;62;20861;-68
2024/01/22 07:27:41;0.00;0.00;0.62;0.00;0.00;0.62;1.60;1.00;;;18.70;21.00;;;;;;2237229;62;20763;-67
2024/01/22 07:30:26;0.00;0.00;0.62;0.00;0.00;0.62;2.00;1.07;;;18.70;21.00;;;;;;2236767;61;20809;-72
2024/01/22 07:33:10;0.00;0.00;0.62;0.00;0.00;0.62;1.73;0.90;;;18.70;21.10;;;;;;2237026;62;20374;-68
2024/01/22 07:35:56;0.00;0.00;0.62;0.00;0.00;0.62;1.50;0.93;;;18.70;21.00;;;;;;2236888;62;20355;-69
2024/01/22 07:38:43;0.00;0.00;0.62;0.00;0.00;0.62;2.10;1.10;;;18.70;21.10;;;;;;2236868;62;20434;-68
2024/01/22 07:41:28;0.00;0.00;0.62;0.00;0.00;0.62;1.50;1.00;;;18.70;21.10;;;;;;2236826;61;20390;-69
2024/01/22 07:44:12;0.00;0.00;0.62;0.00;0.00;0.62;2.10;1.00;;;18.70;21.10;;;;;;2236854;62;20403;-69
2024/01/22 07:47:00;0.00;0.00;0.62;0.00;0.00;0.62;1.60;1.10;;;18.70;21.10;;;;;;2236570;62;20382;-69
2024/01/22 07:49:45;0.00;0.00;0.62;0.00;0.00;0.62;1.73;1.23;;;18.70;21.10;;;;;;2233515;62;20411;-69
2024/01/22 07:52:29;0.00;0.00;0.62;0.00;0.00;0.62;2.70;1.53;;;18.80;21.20;;;;;;2232728;62;20431;-69
2024/01/22 07:55:17;0.00;0.00;0.62;0.00;0.00;0.62;1.53;1.10;;;18.80;21.20;;;;;;2232776;62;20403;-69
2024/01/22 07:58:02;0.00;0.00;0.62;0.00;0.00;0.62;2.00;1.37;;;18.80;21.20;;;;;;2232375;62;20367;-69
2024/01/22 08:00:47;0.00;0.00;0.62;0.00;0.00;0.62;2.27;1.40;;;18.80;21.20;;;;;;2233065;62;20825;-69
2024/01/22 08:03:31;0.00;0.00;0.62;0.00;0.00;0.62;2.40;1.57;;;18.80;21.20;;;;;;2232918;62;20347;-68
2024/01/22 08:06:16;0.00;0.00;0.62;0.00;0.00;0.62;2.70;1.70;;;18.80;21.20;;;;;;2232804;62;20428;-68
2024/01/22 08:09:00;0.00;0.00;0.62;0.00;0.00;0.62;2.70;1.73;;;18.80;21.20;;;;;;2232898;62;20605;-69
2024/01/22 08:11:47;0.00;0.00;0.62;0.00;0.00;0.62;2.43;1.67;;;18.80;21.30;;;;;;2232848;62;20387;-69
2024/01/22 08:14:33;0.00;0.00;0.62;0.00;0.00;0.62;3.13;1.97;;;18.80;21.30;;;;;;2232885;62;20395;-69
2024/01/22 08:17:18;0.00;0.00;0.62;0.00;0.00;0.62;3.03;2.23;;;18.80;21.30;;;;;;2233846;62;20420;-69
2024/01/22 08:20:05;0.00;0.00;0.62;0.00;0.00;0.62;4.07;2.70;;;18.80;21.30;;;;;;2233814;62;20375;-69
2024/01/22 08:22:49;0.00;0.00;0.62;0.00;0.00;0.62;2.77;2.30;;;18.80;21.30;;;;;;2232848;62;20424;-69
2024/01/22 08:25:34;0.00;0.00;0.62;0.00;0.00;0.62;4.87;3.20;;;18.80;21.30;;;;;;2232362;62;20416;-69
2024/01/22 08:28:20;0.00;0.00;0.62;0.00;0.00;0.62;4.80;3.47;;;18.80;21.30;;;;;;2232461;62;20367;-68
2024/01/22 08:31:05;0.00;0.00;0.62;0.00;0.00;0.62;4.63;3.10;;;18.80;21.30;;;;;;2232810;62;20454;-69
2024/01/22 08:33:50;0.00;0.00;0.62;0.00;0.00;0.62;4.40;2.90;;;18.80;21.30;;;;;;2232951;62;20862;-71
2024/01/22 08:36:35;0.00;0.00;0.62;0.00;0.00;0.62;4.40;3.23;;;18.80;21.30;;;;;;2232612;62;20391;-69
2024/01/22 08:39:20;0.00;0.00;0.62;0.00;0.00;0.62;5.10;3.70;;;18.80;21.30;;;;;;2233037;62;20476;-68
2024/01/22 08:42:05;0.00;0.00;0.62;0.00;0.00;0.62;5.93;3.70;;;18.80;21.30;;;;;;2232889;62;20958;-68
2024/01/22 08:44:51;0.00;0.00;0.62;0.00;0.00;0.62;4.80;3.80;;;18.80;21.30;;;;;;2233144;62;20400;-68
2024/01/22 08:47:36;0.00;0.00;0.62;0.00;0.00;0.62;5.00;4.30;;;18.80;21.30;;;;;;2232777;62;20997;-68
2024/01/22 08:50:23;0.00;0.00;0.62;0.00;0.00;0.62;4.70;3.37;;;18.80;21.30;;;;;;2232689;62;20429;-68
2024/01/22 08:53:08;0.00;0.00;0.62;0.00;0.00;0.62;5.10;4.27;;;18.80;21.30;;;;;;2232661;62;20356;-68
2024/01/22 08:55:52;0.00;0.00;0.62;0.00;0.00;0.62;4.90;3.90;;;18.80;21.40;;;;;;2232832;62;20355;-68
2024/01/22 08:58:37;0.00;0.00;0.62;0.00;0.00;0.62;5.00;3.90;;;18.80;21.40;;;;;;2232682;62;20455;-68
2024/01/22 09:01:23;0.00;0.00;0.62;0.00;0.00;0.62;6.27;4.53;;;18.90;21.40;;;;;;2232881;62;20476;-68
2024/01/22 09:04:07;0.00;0.00;0.62;0.00;0.00;0.62;5.30;3.97;;;18.80;21.40;;;;;;2232541;62;20383;-68
2024/01/22 09:06:52;0.00;0.00;0.62;0.00;0.00;0.62;7.63;4.27;;;18.90;21.50;;;;;;2232535;62;20356;-68
2024/01/22 09:09:37;0.00;0.00;0.62;0.00;0.00;0.62;6.73;4.50;;;18.90;21.50;;;;;;2232585;62;20363;-68
2024/01/22 09:12:21;0.00;0.00;0.62;0.00;0.00;0.62;5.40;3.90;;;18.90;21.50;;;;;;2232605;62;20909;-68
2024/01/22 09:15:07;0.00;0.00;0.62;0.00;0.00;0.62;6.37;4.90;;;18.90;21.50;;;;;;2232846;62;20519;-68
2024/01/22 09:17:53;0.00;0.00;0.62;0.00;0.00;0.62;5.07;4.00;;;18.90;21.50;;;;;;2232789;62;20376;-68
2024/01/22 09:20:38;0.00;0.00;0.62;0.00;0.00;0.62;6.63;4.40;;;18.90;21.50;;;;;;2232665;62;20491;-68
2024/01/22 09:23:22;0.00;0.00;0.62;0.00;0.00;0.62;4.73;3.80;;;18.90;21.60;;;;;;2235243;62;20399;-68
2024/01/22 09:26:07;0.00;0.00;0.62;0.00;0.00;0.62;5.70;4.03;;;18.90;21.60;;;;;;2236765;62;20522;-67
2024/01/22 09:28:51;0.00;0.00;0.62;0.00;0.00;0.62;5.00;4.10;;;18.90;21.60;;;;;;2237035;62;20479;-69
2024/01/22 09:31:36;0.00;0.00;0.62;0.00;0.00;0.62;5.60;3.90;;;18.90;21.60;;;;;;2233661;62;20405;-69
2024/01/22 09:34:22;0.00;0.00;0.62;0.00;0.00;0.62;6.17;3.83;;;18.90;21.60;;;;;;2237154;62;20390;-69
2024/01/22 09:37:06;0.00;0.00;0.62;0.00;0.00;0.62;4.67;3.40;;;18.90;21.60;;;;;;2237174;62;20518;-69
2024/01/22 09:39:51;0.00;0.00;0.62;0.00;0.00;0.62;4.90;3.70;;;18.90;21.60;;;;;;2237201;62;20358;-69
2024/01/22 09:42:36;0.00;0.00;0.62;0.00;0.00;0.62;4.90;3.77;;;18.90;21.60;;;;;;2237284;62;20366;-68
2024/01/22 09:45:20;0.00;0.00;0.62;0.00;0.00;0.62;4.37;3.30;;;18.90;21.60;;;;;;2237184;62;20382;-68
2024/01/22 09:48:08;0.00;0.00;0.62;0.00;0.00;0.62;4.30;3.53;;;18.90;21.70;;;;;;2237244;62;20603;-68
2024/01/22 09:50:54;0.00;0.00;0.62;0.00;0.00;0.62;4.27;2.93;;;18.90;21.70;;;;;;2236909;61;20392;-68
2024/01/22 09:53:44;0.00;0.00;0.62;0.00;0.00;0.62;4.70;3.27;;;18.90;21.80;;;;;;2236515;62;20390;-70
2024/01/22 09:56:30;0.00;0.00;0.62;0.00;0.00;0.62;4.40;3.30;;;18.90;21.80;;;;;;2237175;62;20366;-70
2024/01/22 09:59:18;0.00;0.00;0.62;0.00;0.00;0.62;5.03;2.80;;;18.90;21.80;;;;;;2233871;62;20474;-67
2024/01/22 10:02:04;0.00;0.00;0.62;0.00;0.00;0.62;3.27;2.70;;;18.90;21.90;;;;;;2237309;62;20823;-68
2024/01/22 10:04:49;0.00;0.00;0.62;0.00;0.00;0.62;4.43;3.40;;;18.90;21.90;;;;;;2234201;62;20480;-67
2024/01/22 10:07:35;0.00;0.00;0.62;0.00;0.00;0.62;4.33;2.90;;;19.00;22.00;;;;;;2237028;62;20374;-68
2024/01/22 10:10:21;0.00;0.00;0.62;0.00;0.00;0.62;3.13;2.40;;;19.00;22.00;;;;;;2233466;61;20778;-68
2024/01/22 10:13:09;0.00;0.00;0.62;0.00;0.00;0.62;3.17;2.73;;;19.00;22.10;;;;;;2236702;62;20374;-71
2024/01/22 10:15:54;0.00;0.00;0.62;0.00;0.00;0.62;4.47;2.87;;;19.00;22.20;;;;;;2236273;62;20526;-72
2024/01/22 10:18:39;0.00;0.00;0.62;0.00;0.00;0.62;4.13;2.60;;;19.00;22.20;;;;;;2236662;62;20395;-67
2024/01/22 10:21:24;0.00;0.00;0.62;0.00;0.00;0.62;3.03;2.60;;;19.00;22.20;;;;;;2236482;62;20434;-68
2024/01/22 10:24:10;0.00;0.00;0.62;0.00;0.00;0.62;4.50;2.83;;;19.00;22.20;;;;;;2236698;62;20518;-71
2024/01/22 10:26:54;0.00;0.00;0.62;0.00;0.00;0.62;4.47;3.13;;;19.00;22.20;;;;;;2236605;62;20378;-70
2024/01/22 10:29:39;0.00;0.00;0.62;0.00;0.00;0.62;4.03;2.37;;;19.00;22.20;;;;;;2233247;62;20370;-69
2024/01/22 10:32:23;0.00;0.00;0.62;0.00;0.00;0.62;4.83;2.60;;;19.00;22.20;;;;;;2233603;62;20461;-68
2024/01/22 10:35:22;0.00;0.00;0.62;0.00;0.00;0.62;3.60;2.73;;;19.00;22.20;;;;;;2236903;62;20432;-68
2024/01/22 10:38:09;0.00;0.00;0.62;0.00;0.00;0.62;3.70;2.60;;;19.00;22.20;;;;;;2237177;62;20366;-68
2024/01/22 10:40:55;0.00;0.00;0.62;0.00;0.00;0.62;4.20;2.70;;;19.10;22.30;;;;;;2237328;61;20414;-68
2024/01/22 10:43:42;0.00;0.00;0.62;0.00;0.00;0.62;2.87;2.17;;;19.00;22.20;;;;;;2237143;62;20869;-68
2024/01/22 10:46:27;0.00;0.00;0.62;0.00;0.00;0.62;3.93;2.60;;;19.00;22.20;;;;;;2237303;62;20833;-68
2024/01/22 10:49:12;0.00;0.00;0.62;0.00;0.00;0.62;5.80;2.17;;;19.10;22.30;;;;;;2237205;62;20894;-68
2024/01/22 10:51:59;0.00;0.00;0.62;0.00;0.00;0.62;3.27;2.30;;;19.10;22.30;;;;;;2231233;62;20793;-68